Lindale, TX

5:30 PM CST on February 06, 2016 (GMT -0600)
Pleasant Oaks, Woodcrest ENGAGE, YWAM, CCF & Mercy Ships area | | Change Station
CLOSE
Current Station
Personal Weather Station
Location: Lindale, TX
Elevation: 600 ft
Nearby Weather Stations

Elev 600 ft 32.50 °N, 95.51 °W | Updated 1 day ago

Clear
Clear
44 °F
Feels Like 44 °F
N
2
Wind Variable Wind from West
Gusts mph

Today
High -- | Low -- °F
--% Chance of Precip.
Yesterday
High -- | Low -- °F
Precip. -- in
Pressure 30.32 in
Visibility -9999.0 miles
Clouds Clear
Dew Point 33 °F
Humidity 67%
Rainfall in
Snow Depth Not available.
7:13 AM 5:59 PM
Waning Crescent, 4% visible
METAR KTYR 062253Z AUTO 06004KT CLR 12/01 A3032 RMK AO2 SLP267 T01170006 $
Pressure 30.32 in
Visibility -9999.0 miles
Clouds Clear
Dew Point 33 °F
Humidity 67%
Rainfall in
Snow Depth Not available.
7:13 AM 5:59 PM
Waning Crescent, 4% visible
METAR KTYR 062253Z AUTO 06004KT CLR 12/01 A3032 RMK AO2 SLP267 T01170006 $

10-Day Weather Forecast

Almanac

Astronomy

Feb. 06, 2016 Rise Set
Actual Time
Civil Twilight
Nautical Twilight
Astronomical Twilight
Moon
Length of Visible Light
Length of Day
Tomorrow will be .
, % of the Moon is Illuminated

Today's Extremes

State Highs State Lows

Community

WunderPhotos

Upload Photos

1,891,094 photos uploaded!

WunderBlog® & News

Nearby

Air Quality

  Air Quality AQ Index Pollutant
Not available.

Snow Depth

Station Depth Elevation

Earthquake Activity

City Distance Mag. Time & Date
Minimum magnitude displayed is 2.5.

Coastal Water Temperatures

Place Temperature

Stations

Nearby Weather Stations

Station Location Temp. Windchill Dew Point Humidity Wind Precip. Elev Updated Type
                   

Watches & Warnings

There are currently no watches in effect.